x

Bodega Bay - 48nm Nnw Of San Francisco, Ca (46013) Wave Buoy

3:50pm - Thu 18th Sep 2014 All times are PDT. -7 hours from GMT.

  • Sig Wave height 6.9ft
  • Peak Period 10s
  • Average Period 8s
  • Wind
    7mph, 9mph gusts
  • Sea Temp 63°f
  • Air Temp 64°f
  • Sea Pressure 1011mb
  • Bodega Bay - 48nm Nnw Of San Francisco, Ca
  • Bodega Bay - 48nm Nnw Of San Francisco, Ca

More Historic Weather Station data

Upgrade to MSW Pro to gain access to the past 30 days of data for over 8000 Wavebouys and Weather Stations around the globe.

Join Pro

Comparision Forecast

View Surf forecast
   
Thu 09/18 3:50pm 7ft 10s 8s 7 9 mph 1011mb 63f 64f
2:50pm 6.5ft 16s 7s 9 11 mph 1011.2mb 63f 64f
1:50pm 7ft 10s 8s 11 13 mph 1011.5mb 63f 64f
12:50pm 7ft 10s 8s 9 11 mph 1011.4mb 64f 64f
11:50am 7ft 16s 8s 9 11 mph 1011.2mb 64f 64f
10:50am 7ft 12s 8s 11
mph
1011mb 63f 64f
9:50am 7ft 11s 7s 11 13 mph 1010.5mb 63f 64f
8:50am 7.5ft 10s 7s 11 13 mph 1009.8mb 63f 64f
7:50am 7ft 10s 7s 11
mph
1009.2mb 63f 64f
6:50am 7.5ft 10s 7s 13 18 mph 1008.3mb 63f 64f
5:50am 7ft 17s 7s 13 16 mph 1007.8mb 63f 64f
4:50am 8ft 9s 7s 13 16 mph 1007.4mb 63f 64f
3:50am 8ft 10s 7s 13 18 mph 1007.4mb 63f 64f
2:50am 8ft 17s 7s 13 18 mph 1007.4mb 63f 64f
1:50am 7.5ft 8s 6s 18 20 mph 1007.4mb 63f 64f
12:50am 7ft 9s 6s 18 22 mph 1007.5mb 63f 64f
Wed 09/17 11:50pm 7ft 13s 6s 18 22 mph 1007.3mb 63f 64f
10:50pm 6.5ft 12s 6s 18 22 mph 1007.2mb 63f 64f
9:50pm 5.5ft 17s 6s 16 20 mph 1007.2mb 64f 64f
8:50pm 5ft 14s 6s 18 22 mph 1007mb 64f 64f
7:50pm 5ft 17s 6s 20 25 mph 1006.6mb 64f 64f
6:50pm 5ft 17s 7s 18 20 mph 1006.7mb 64f 64f
5:50pm 5ft 14s 8s 16 22 mph 1007mb 64f 64f
4:50pm 4.5ft 17s 7s 13 18 mph 1007.4mb 64f 64f
3:50pm 5ft 17s 8s 13 16 mph 1008mb 64f 64f
2:50pm 5ft 17s 8s 13 16 mph 1008.6mb 64f 64f
1:50pm 4.5ft 17s 8s 13 18 mph 1008.9mb 64f 64f
12:50pm 5ft 13s 10s 13 16 mph 1009.4mb 64f 63f
11:50am 4.5ft 17s 10s 11 13 mph 1009.7mb 64f 64f
10:50am 5ft 14s 11s 11 13 mph 1009.5mb 63f 63f
9:50am 4.5ft 14s 12s 11 13 mph 1009.4mb 63f 63f
8:50am 4.5ft 17s 12s 9 11 mph 1009.4mb 63f 63f
7:50am 4.5ft 19s 12s 7 9 mph 1009.5mb 63f 62f
6:50am 4.5ft 19s 11s 7
mph
1009.3mb 63f 62f
5:50am 3.5ft 19s 10s 2 4 mph 1009.3mb 63f 62f
4:50am 4ft 14s 10s  -  2 mph 1009.3mb 63f 62f
3:50am 3.5ft 15s 10s  -  4 mph 1009.6mb 63f 62f
2:50am 3.5ft 19s 10s 2 4 mph 1009.8mb 63f 62f
1:50am 4ft 19s 10s 4 7 mph 1010.1mb 63f 62f
12:50am 3.5ft 19s 8s  -  2 mph 1010.1mb 63f 62f
Tue 09/16 11:50pm 3.5ft 19s 8s 4 7 mph 1010mb 63f 62f
10:50pm 3.5ft 19s 9s 7 9 mph 1010.3mb 63f 62f
9:50pm 3.5ft 19s 9s 9
mph
1010.4mb 63f 62f
8:50pm 4.5ft 19s 10s 9 11 mph 1010.3mb 63f 62f
7:50pm 3.5ft 19s 9s 9 11 mph 1010.1mb 63f 62f
6:50pm 3.5ft 19s 9s 11 13 mph 1010mb 64f 63f
5:50pm 3ft 19s 9s 9 11 mph 1010mb 63f 63f
4:50pm 3ft 15s 8s 9 11 mph 1010.4mb 64f 64f
3:50pm 3.5ft 19s 10s 9 11 mph 1011.2mb 63f 63f
2:50pm 3.5ft 19s 9s 7 9 mph 1012mb 63f 63f
1:50pm 3.5ft 19s 12s 11 13 mph 1012.5mb 63f 63f
12:50pm 3.5ft 19s 11s 11 13 mph 1013mb 64f 63f
11:50am 3.5ft 19s 11s 4
mph
1013mb 64f 62f
10:50am 4ft 19s 12s 2 4 mph 1013.6mb 64f 62f
9:50am 3ft 21s 11s  -  2 mph 1013.7mb 63f 64f
8:50am 3ft 21s 10s 2
mph
1013.7mb 62f 62f
7:50am 3ft 21s 10s 4 7 mph 1013.6mb 62f 61f
6:50am 3.5ft 21s 10s 4 7 mph 1013.4mb 62f 61f
5:50am 2.5ft 17s 8s 4 7 mph 1013.3mb 62f 61f
4:50am 2.5ft 21s 10s 2 4 mph 1013.1mb 62f 63f
3:50am 2.5ft 19s 10s 4
mph
1013.4mb 62f 62f
2:50am 2.5ft 21s 10s 4
mph
1013.6mb 62f 62f
1:50am 2.5ft 21s 11s 4 7 mph 1013.8mb 62f 62f
12:50am 2.5ft 21s 10s 7 9 mph 1013.8mb 63f 63f
Mon 09/15 11:50pm 2.5ft 17s 10s 4 7 mph 1013.9mb 63f 62f
10:50pm 2.5ft 17s 11s 2
mph
1013.7mb 63f 62f
9:50pm 2.5ft 17s 10s 2 4 mph 1013.6mb 62f 61f
8:50pm 2.5ft 19s 11s 2
mph
1013.3mb 63f 62f
7:50pm 2.5ft 17s 10s 2 4 mph 1012.6mb 63f 62f
6:50pm 2.5ft 19s 11s 4
mph
1012.6mb 64f 63f
5:50pm 2.5ft 21s 9s 7
mph
1012.7mb 64f 63f
4:50pm 2.5ft 17s 9s 7 9 mph 1012.8mb 64f 63f
3:50pm 2.5ft 19s 8s 7
mph
1013.2mb 65f 63f
2:50pm 2.5ft 21s 8s 4
mph
1013.3mb 64f 62f
1:50pm 2.5ft 21s 8s  -  2 mph 1013.5mb 65f 62f
12:50pm 2.5ft 21s 8s  -  2 mph 1013.8mb 64f 60f
11:50am 2.5ft 21s 8s 2 4 mph 1013.9mb 63f 60f
10:50am 2ft 13s 7s 7
mph
1013.5mb 62f 59f
9:50am 2.5ft 21s 7s 7 9 mph 1013.3mb 62f 60f
8:50am 2ft 8s 6s 7 9 mph 1013.2mb 62f 59f
7:50am 2.5ft 14s 6s 9 13 mph 1012.9mb 62f 59f
6:50am 2.5ft 21s 6s 9 13 mph 1012.2mb 62f 59f
5:50am 2.5ft 21s 5s 9 11 mph 1011.6mb 62f 59f
4:50am 2.5ft 21s 6s 9 11 mph 1011.5mb 62f 58f
3:50am 2.5ft 13s 6s 13 18 mph 1011.1mb 62f 59f
2:50am 2.5ft 12s 6s 11 16 mph 1011mb 62f 58f
1:50am 2.5ft 11s 6s 11 13 mph 1011.3mb 62f 59f
12:50am 2ft 13s 6s 9 11 mph 1011.3mb 62f 60f